createdAt,value
2022-09-12T00:01:54.228Z,10.40
2022-09-12T00:04:20.945Z,10.50
2022-09-12T00:06:48.568Z,10.50
2022-09-12T00:09:15.597Z,10.40
2022-09-12T00:11:47.523Z,10.50
2022-09-12T00:14:17.224Z,10.50
2022-09-12T00:16:45.171Z,10.40
2022-09-12T00:19:12.544Z,10.40
2022-09-12T00:21:40.876Z,10.40
2022-09-12T00:24:08.654Z,10.30
2022-09-12T00:26:36.236Z,10.40
2022-09-12T00:29:03.897Z,10.40
2022-09-12T00:31:30.662Z,10.60
2022-09-12T00:34:01.012Z,10.40
2022-09-12T00:36:30.340Z,10.30
2022-09-12T00:38:57.860Z,10.30
2022-09-12T00:41:31.720Z,10.40
2022-09-12T00:44:22.869Z,10.20
2022-09-12T00:46:52.439Z,10.20
2022-09-12T00:49:54.754Z,10.20
2022-09-12T00:52:39.615Z,10.10
2022-09-12T00:55:36.044Z,10.00
2022-09-12T00:58:10.151Z,10.10
2022-09-12T01:00:37.939Z,10.10
2022-09-12T01:03:11.514Z,10.10
2022-09-12T01:05:47.435Z,10.00
2022-09-12T01:08:14.461Z,10.00
2022-09-12T01:10:42.525Z,10.00
2022-09-12T01:13:10.458Z,10.00
2022-09-12T01:15:39.374Z,9.90
2022-09-12T01:18:11.464Z,9.90
2022-09-12T01:20:47.595Z,9.90
2022-09-12T01:24:00.899Z,9.90
2022-09-12T01:27:05.133Z,9.90
2022-09-12T01:29:44.041Z,9.90
2022-09-12T01:32:45.347Z,10.00
2022-09-12T01:35:26.647Z,10.00
2022-09-12T01:38:06.279Z,9.70
2022-09-12T01:40:58.664Z,9.70
2022-09-12T01:43:58.606Z,9.80
2022-09-12T01:46:43.356Z,9.80
2022-09-12T01:49:32.882Z,9.90
2022-09-12T01:52:09.460Z,9.80
2022-09-12T01:54:42.160Z,9.70
2022-09-12T01:57:27.852Z,9.70
2022-09-12T01:59:59.180Z,9.60
2022-09-12T02:02:35.718Z,9.60
2022-09-12T02:05:08.990Z,9.70
2022-09-12T02:07:45.333Z,9.80
2022-09-12T02:10:23.154Z,10.00
2022-09-12T02:12:58.873Z,9.50
2022-09-12T02:15:33.068Z,9.60
2022-09-12T02:18:04.984Z,9.70
2022-09-12T02:20:47.881Z,9.70
2022-09-12T02:23:21.481Z,9.60
2022-09-12T02:25:52.289Z,9.70
2022-09-12T02:28:25.043Z,9.60
2022-09-12T02:31:09.232Z,9.60
2022-09-12T02:34:02.535Z,9.60
2022-09-12T02:36:48.118Z,9.60
2022-09-12T02:39:19.501Z,9.70
2022-09-12T02:41:48.679Z,9.80
2022-09-12T02:44:15.338Z,9.60
2022-09-12T02:46:47.099Z,9.60
2022-09-12T02:49:14.601Z,9.50
2022-09-12T02:51:42.233Z,9.40
2022-09-12T02:54:10.159Z,9.50
2022-09-12T02:56:43.376Z,9.50
2022-09-12T02:59:14.288Z,9.40
2022-09-12T03:01:41.275Z,9.50
2022-09-12T03:04:36.274Z,9.40
2022-09-12T03:07:16.528Z,9.60
2022-09-12T03:10:08.087Z,9.50
2022-09-12T03:12:56.071Z,9.50
2022-09-12T03:15:45.757Z,9.50
2022-09-12T03:18:35.470Z,9.40
2022-09-12T03:21:05.787Z,9.30
2022-09-12T03:23:40.978Z,9.40
2022-09-12T03:26:37.868Z,9.50
2022-09-12T03:29:07.419Z,9.40
2022-09-12T03:31:34.189Z,9.40
2022-09-12T03:34:01.319Z,9.40
2022-09-12T03:36:29.624Z,9.40
2022-09-12T03:38:57.173Z,9.50
2022-09-12T03:41:24.169Z,9.60
2022-09-12T03:43:51.664Z,9.40
2022-09-12T03:46:18.555Z,9.70
2022-09-12T03:48:45.545Z,9.50
2022-09-12T03:51:12.475Z,9.40
2022-09-12T03:53:39.922Z,9.30
2022-09-12T03:56:08.573Z,9.20
2022-09-12T03:58:36.672Z,9.60
2022-09-12T04:01:13.241Z,9.70
2022-09-12T04:03:45.281Z,9.80
2022-09-12T04:06:14.576Z,9.60
2022-09-12T04:08:42.887Z,9.80
2022-09-12T04:11:14.209Z,9.90
2022-09-12T04:13:43.452Z,9.50
2022-09-12T04:16:10.825Z,9.50
2022-09-12T04:18:38.273Z,9.40
2022-09-12T04:21:07.005Z,9.30
2022-09-12T04:23:34.549Z,9.30
2022-09-12T04:26:02.710Z,9.40
2022-09-12T04:28:29.969Z,9.40
2022-09-12T04:31:01.746Z,9.40
2022-09-12T04:33:28.603Z,9.40
2022-09-12T04:35:55.543Z,9.40
2022-09-12T04:38:22.300Z,9.40
2022-09-12T04:40:49.268Z,9.30
2022-09-12T04:43:16.157Z,9.10
2022-09-12T04:45:43.245Z,9.10
2022-09-12T04:48:09.895Z,9.10
2022-09-12T04:50:36.838Z,9.00
2022-09-12T04:53:03.637Z,8.90
2022-09-12T04:55:30.643Z,9.00
2022-09-12T04:57:57.355Z,9.00
2022-09-12T05:00:25.033Z,9.20
2022-09-12T05:02:51.830Z,9.30
2022-09-12T05:05:18.823Z,9.20
2022-09-12T05:07:45.582Z,9.20
2022-09-12T05:10:13.594Z,9.40
2022-09-12T05:12:40.308Z,9.40
2022-09-12T05:15:08.049Z,9.40
2022-09-12T05:17:34.713Z,9.40
2022-09-12T05:20:02.157Z,9.50
2022-09-12T05:22:28.925Z,9.30
2022-09-12T05:24:55.684Z,9.40
2022-09-12T05:27:22.912Z,9.30
2022-09-12T05:29:49.584Z,9.40
2022-09-12T05:32:16.492Z,9.50
2022-09-12T05:34:43.175Z,9.40
2022-09-12T05:37:10.259Z,9.40
2022-09-12T05:39:36.854Z,9.40
2022-09-12T05:42:04.197Z,9.30
2022-09-12T05:44:30.936Z,9.40
2022-09-12T05:46:57.975Z,9.50
2022-09-12T05:49:24.737Z,9.40
2022-09-12T05:51:51.968Z,9.60
2022-09-12T05:54:20.419Z,9.70
2022-09-12T05:56:48.302Z,10.00
2022-09-12T05:59:18.306Z,9.80
2022-09-12T06:01:46.054Z,10.00
2022-09-12T06:04:12.936Z,9.80
2022-09-12T06:06:42.754Z,9.90
2022-09-12T06:09:10.029Z,10.00
2022-09-12T06:11:41.133Z,10.10
2022-09-12T06:14:09.867Z,10.50
2022-09-12T06:16:38.059Z,10.10
2022-09-12T06:19:07.912Z,10.40
2022-09-12T06:21:40.099Z,10.50
2022-09-12T06:24:07.573Z,10.20
2022-09-12T06:26:34.959Z,10.10
2022-09-12T06:29:02.077Z,10.10
2022-09-12T06:31:31.958Z,10.60
2022-09-12T06:34:02.393Z,10.70
2022-09-12T06:36:36.795Z,10.60
2022-09-12T06:39:07.642Z,10.50
2022-09-12T06:41:35.005Z,10.50
2022-09-12T06:44:02.339Z,10.60
2022-09-12T06:46:31.242Z,10.50
2022-09-12T06:48:59.705Z,10.40
2022-09-12T06:51:27.468Z,10.40
2022-09-12T06:53:57.535Z,10.60
2022-09-12T06:56:27.664Z,10.90
2022-09-12T06:58:56.024Z,10.90
2022-09-12T07:01:24.928Z,10.80
2022-09-12T07:03:55.048Z,11.30
2022-09-12T07:06:24.419Z,11.40
2022-09-12T07:08:51.434Z,11.70
2022-09-12T07:11:24.472Z,11.50
2022-09-12T07:13:53.490Z,11.70
2022-09-12T07:16:20.812Z,12.00
2022-09-12T07:18:52.607Z,12.00
2022-09-12T07:21:20.647Z,12.40
2022-09-12T07:23:47.953Z,12.00
2022-09-12T07:26:16.357Z,12.10
2022-09-12T07:28:43.717Z,12.20
2022-09-12T07:31:16.421Z,12.60
2022-09-12T07:33:43.702Z,12.20
2022-09-12T07:36:16.568Z,12.30
2022-09-12T07:38:44.332Z,12.20
2022-09-12T07:41:17.474Z,12.40
2022-09-12T07:43:44.377Z,12.40
2022-09-12T07:46:11.485Z,12.70
2022-09-12T07:48:39.432Z,12.90
2022-09-12T07:51:08.587Z,13.00
2022-09-12T07:53:38.365Z,13.30
2022-09-12T07:56:06.394Z,13.10
2022-09-12T07:58:35.344Z,12.60
2022-09-12T08:01:09.370Z,12.60
2022-09-12T08:03:36.967Z,12.80
2022-09-12T08:06:20.256Z,12.70
2022-09-12T08:08:48.131Z,12.80
2022-09-12T08:11:18.025Z,12.80
2022-09-12T08:13:45.831Z,12.80
2022-09-12T08:16:18.010Z,12.50
2022-09-12T08:18:45.543Z,12.60
2022-09-12T08:21:17.775Z,12.90
2022-09-12T08:23:45.537Z,12.90
2022-09-12T08:26:13.318Z,13.20
2022-09-12T08:28:43.674Z,13.20
2022-09-12T08:31:16.050Z,13.60
2022-09-12T08:33:43.273Z,14.10
2022-09-12T08:36:15.596Z,14.50
2022-09-12T08:38:44.769Z,14.70
2022-09-12T08:41:27.138Z,15.50
2022-09-12T08:44:30.835Z,16.40
2022-09-12T08:47:16.498Z,16.40
2022-09-12T08:50:02.575Z,16.90
2022-09-12T08:52:51.081Z,17.70
2022-09-12T08:55:37.856Z,17.20
2022-09-12T08:58:12.422Z,18.00
2022-09-12T09:00:50.996Z,18.60
2022-09-12T09:03:33.253Z,18.50
2022-09-12T09:06:16.411Z,19.20
2022-09-12T09:08:46.984Z,18.80
2022-09-12T09:11:20.956Z,19.50
2022-09-12T09:14:37.979Z,19.40
2022-09-12T09:17:11.917Z,19.70
2022-09-12T09:19:50.862Z,20.10
2022-09-12T09:22:38.121Z,19.60
2022-09-12T09:25:22.904Z,19.70
2022-09-12T09:28:04.191Z,20.40
2022-09-12T09:30:32.013Z,20.20
2022-09-12T09:33:01.911Z,19.80
2022-09-12T09:35:49.287Z,19.80
2022-09-12T09:38:48.454Z,20.70
2022-09-12T09:41:30.849Z,20.90
2022-09-12T09:43:58.689Z,20.90
2022-09-12T09:46:26.505Z,20.40
2022-09-12T09:48:53.884Z,21.40
2022-09-12T09:51:28.409Z,21.40
2022-09-12T09:54:01.508Z,21.70
2022-09-12T09:56:40.916Z,21.50
2022-09-12T09:59:12.090Z,22.00
2022-09-12T10:02:23.623Z,21.80
2022-09-12T10:04:56.447Z,21.80
2022-09-12T10:07:24.273Z,22.40
2022-09-12T10:10:20.046Z,22.60
2022-09-12T10:12:46.803Z,22.60
2022-09-12T10:15:22.322Z,22.80
2022-09-12T10:17:51.272Z,22.80
2022-09-12T10:20:44.934Z,23.10
2022-09-12T10:23:35.107Z,23.30
2022-09-12T10:26:05.513Z,22.80
2022-09-12T10:28:53.448Z,22.90
2022-09-12T10:31:30.327Z,22.60
2022-09-12T10:33:59.739Z,23.10
2022-09-12T10:36:35.527Z,23.10
2022-09-12T10:39:04.231Z,23.90
2022-09-12T10:41:39.979Z,23.70
2022-09-12T10:44:10.040Z,23.80
2022-09-12T10:46:36.990Z,23.60
2022-09-12T10:49:21.344Z,23.70
2022-09-12T10:51:49.244Z,23.70
2022-09-12T10:54:19.170Z,23.50
2022-09-12T10:56:58.171Z,23.90
2022-09-12T10:59:52.736Z,24.60
2022-09-12T11:02:33.445Z,24.00
2022-09-12T11:05:12.109Z,24.10
2022-09-12T11:07:42.210Z,24.00
2022-09-12T11:10:21.244Z,24.50
2022-09-12T11:13:26.015Z,24.60
2022-09-12T11:16:12.116Z,24.80
2022-09-12T11:19:23.900Z,25.30
2022-09-12T11:22:04.145Z,24.80
2022-09-12T11:24:34.140Z,24.30
2022-09-12T11:27:47.275Z,25.00
2022-09-12T11:30:18.177Z,24.90
2022-09-12T11:32:57.011Z,25.50
2022-09-12T11:35:31.284Z,24.70
2022-09-12T11:38:04.946Z,24.80
2022-09-12T11:40:55.948Z,24.20
2022-09-12T11:43:41.785Z,24.20
2022-09-12T11:46:38.159Z,24.20
2022-09-12T11:49:17.058Z,24.50
2022-09-12T11:51:59.602Z,24.90
2022-09-12T11:55:01.158Z,25.10
2022-09-12T11:57:36.751Z,24.70
2022-09-12T12:00:24.532Z,25.00
2022-09-12T12:03:20.435Z,25.40
2022-09-12T12:05:59.574Z,25.20
2022-09-12T12:08:29.551Z,25.40
2022-09-12T12:11:00.104Z,25.00
2022-09-12T12:13:34.456Z,24.90
2022-09-12T12:16:29.147Z,25.30
2022-09-12T12:19:00.281Z,24.90
2022-09-12T12:21:48.378Z,24.30
2022-09-12T12:24:23.946Z,24.20
2022-09-12T12:26:54.315Z,24.40
2022-09-12T12:29:20.906Z,24.90
2022-09-12T12:31:59.941Z,25.30
2022-09-12T12:34:38.481Z,25.70
2022-09-12T12:37:23.354Z,25.00
2022-09-12T12:39:51.383Z,25.30
2022-09-12T12:42:36.281Z,25.90
2022-09-12T12:45:09.487Z,25.60
2022-09-12T12:47:36.681Z,25.80
2022-09-12T12:50:06.792Z,25.80
2022-09-12T12:52:49.084Z,26.20
2022-09-12T12:55:22.702Z,25.60
2022-09-12T12:57:52.857Z,25.20
2022-09-12T13:00:35.531Z,25.20
2022-09-12T13:03:06.437Z,24.50
2022-09-12T13:05:46.363Z,24.70
2022-09-12T13:08:19.332Z,25.10
2022-09-12T13:10:56.367Z,25.30
2022-09-12T13:13:32.794Z,25.00
2022-09-12T13:15:59.676Z,25.30
2022-09-12T13:18:32.315Z,25.00
2022-09-12T13:21:17.567Z,24.90
2022-09-12T13:23:46.119Z,24.20
2022-09-12T13:26:25.618Z,24.20
2022-09-12T13:29:10.852Z,24.20
2022-09-12T13:31:37.941Z,24.40
2022-09-12T13:34:08.281Z,24.40
2022-09-12T13:37:04.942Z,24.70
2022-09-12T13:39:44.408Z,24.40
2022-09-12T13:42:23.069Z,25.30
2022-09-12T13:48:04.793Z,25.00
2022-09-12T13:50:39.511Z,25.30
2022-09-12T13:53:13.567Z,25.00
2022-09-12T13:55:43.079Z,25.70
2022-09-12T13:58:24.748Z,25.60
2022-09-12T14:01:10.719Z,25.50
2022-09-12T14:04:32.229Z,25.60
2022-09-12T14:07:02.527Z,25.30
2022-09-12T14:09:35.280Z,25.10
2022-09-12T14:12:03.213Z,25.60
2022-09-12T14:14:34.416Z,25.60
2022-09-12T14:17:02.747Z,25.00
2022-09-12T14:19:30.326Z,24.90
2022-09-12T14:21:57.755Z,25.40
2022-09-12T14:24:25.133Z,25.30
2022-09-12T14:26:56.892Z,25.50
2022-09-12T14:29:25.593Z,25.80
2022-09-12T14:32:03.745Z,25.20
2022-09-12T14:34:31.315Z,24.90
2022-09-12T14:36:58.705Z,25.40
2022-09-12T14:39:41.402Z,25.00
2022-09-12T14:42:21.186Z,24.80
2022-09-12T14:45:17.355Z,24.70
2022-09-12T14:47:50.770Z,24.30
2022-09-12T14:50:29.780Z,24.30
2022-09-12T14:53:30.819Z,24.30
2022-09-12T14:56:12.924Z,24.30
2022-09-12T14:58:41.207Z,25.10
2022-09-12T15:01:08.306Z,24.80
2022-09-12T15:03:49.257Z,24.50
2022-09-12T15:06:31.347Z,24.20
2022-09-12T15:09:02.496Z,25.10
2022-09-12T15:11:29.234Z,25.00
2022-09-12T15:13:56.094Z,24.90
2022-09-12T15:16:23.766Z,25.00
2022-09-12T15:18:51.073Z,25.20
2022-09-12T15:21:20.490Z,24.50
2022-09-12T15:23:52.256Z,24.70
2022-09-12T15:26:22.550Z,24.20
2022-09-12T15:28:50.479Z,24.10
2022-09-12T15:31:25.665Z,24.00
2022-09-12T15:33:53.589Z,24.60
2022-09-12T15:36:22.869Z,24.90
2022-09-12T15:38:50.672Z,24.50
2022-09-12T15:41:21.311Z,25.00
2022-09-12T15:43:48.837Z,24.90
2022-09-12T15:46:18.103Z,24.70
2022-09-12T15:48:45.763Z,24.20
2022-09-12T15:51:21.421Z,24.60
2022-09-12T15:53:50.279Z,24.70
2022-09-12T15:56:19.077Z,24.70
2022-09-12T15:58:58.182Z,24.80
2022-09-12T16:01:26.231Z,24.70
2022-09-12T16:03:53.290Z,24.70
2022-09-12T16:06:20.104Z,24.70
2022-09-12T16:08:47.476Z,24.50
2022-09-12T16:11:22.687Z,24.40
2022-09-12T16:13:50.056Z,24.80
2022-09-12T16:16:16.912Z,24.70
2022-09-12T16:18:43.608Z,24.90
2022-09-12T16:21:14.940Z,24.80
2022-09-12T16:23:43.665Z,24.80
2022-09-12T16:26:11.102Z,24.60
2022-09-12T16:28:37.850Z,25.40
2022-09-12T16:31:07.361Z,26.50
2022-09-12T16:33:34.993Z,27.10
2022-09-12T16:36:10.700Z,27.30
2022-09-12T16:38:49.704Z,27.50
2022-09-12T16:41:18.369Z,27.90
2022-09-12T16:43:50.421Z,28.10
2022-09-12T16:46:22.860Z,27.70
2022-09-12T16:48:59.113Z,27.70
2022-09-12T16:51:31.885Z,27.50
2022-09-12T16:53:59.235Z,27.00
2022-09-12T16:56:26.264Z,26.20
2022-09-12T16:58:53.412Z,26.40
2022-09-12T17:01:25.581Z,26.10
2022-09-12T17:03:57.737Z,26.30
2022-09-12T17:06:25.476Z,25.70
2022-09-12T17:08:55.036Z,25.10
2022-09-12T17:11:30.844Z,24.70
2022-09-12T17:14:07.258Z,22.90
2022-09-12T17:16:51.366Z,22.20
2022-09-12T17:19:28.444Z,21.30
2022-09-12T17:21:56.044Z,20.50
2022-09-12T17:24:23.470Z,19.90
2022-09-12T17:26:51.355Z,19.60
2022-09-12T17:29:18.941Z,19.30
2022-09-12T17:31:46.497Z,19.00
2022-09-12T17:34:14.765Z,18.60
2022-09-12T17:36:45.383Z,18.50
2022-09-12T17:39:13.890Z,18.30
2022-09-12T17:41:45.761Z,18.00
2022-09-12T17:44:15.325Z,17.80
2022-09-12T17:46:43.028Z,17.60
2022-09-12T17:49:15.217Z,17.60
2022-09-12T17:51:43.445Z,17.30
2022-09-12T17:54:18.427Z,16.90
2022-09-12T17:56:49.798Z,16.70
2022-09-12T17:59:19.794Z,16.50
2022-09-12T18:02:06.241Z,16.40
2022-09-12T18:04:33.463Z,16.30
2022-09-12T18:07:00.605Z,16.40
2022-09-12T18:09:28.630Z,16.30
2022-09-12T18:11:55.831Z,16.20
2022-09-12T18:14:23.930Z,16.00
2022-09-12T18:16:50.937Z,15.90
2022-09-12T18:19:17.984Z,15.80
2022-09-12T18:21:45.625Z,15.80
2022-09-12T18:24:12.558Z,15.50
2022-09-12T18:26:39.856Z,15.30
2022-09-12T18:29:07.582Z,15.00
2022-09-12T18:31:34.738Z,14.80
2022-09-12T18:34:02.570Z,14.60
2022-09-12T18:36:30.454Z,14.50
2022-09-12T18:38:59.082Z,14.50
2022-09-12T18:41:31.242Z,14.40
2022-09-12T18:43:59.934Z,14.30
2022-09-12T18:46:29.450Z,14.30
2022-09-12T18:49:00.329Z,14.40
2022-09-12T18:51:33.894Z,14.60
2022-09-12T18:54:06.491Z,14.50
2022-09-12T18:56:35.928Z,14.50
2022-09-12T18:59:05.343Z,14.40
2022-09-12T19:01:37.500Z,14.30
2022-09-12T19:04:05.691Z,14.00
2022-09-12T19:06:36.207Z,14.00
2022-09-12T19:09:07.770Z,13.80
2022-09-12T19:11:37.283Z,13.80
2022-09-12T19:14:04.427Z,13.70
2022-09-12T19:16:31.917Z,13.60
2022-09-12T19:19:00.043Z,13.40
2022-09-12T19:21:30.244Z,13.30
2022-09-12T19:23:58.454Z,13.20
2022-09-12T19:26:25.188Z,13.10
2022-09-12T19:28:53.424Z,13.20
2022-09-12T19:31:22.086Z,13.30
2022-09-12T19:33:49.811Z,13.40
2022-09-12T19:39:13.308Z,13.50
2022-09-12T19:41:40.452Z,13.40
2022-09-12T19:44:07.188Z,13.40
2022-09-12T19:46:34.092Z,13.30
2022-09-12T19:49:01.140Z,13.20
2022-09-12T19:51:27.962Z,13.20
2022-09-12T19:53:55.211Z,13.10
2022-09-12T19:56:22.316Z,13.10
2022-09-12T19:58:55.793Z,13.00
2022-09-12T20:01:29.432Z,13.00
2022-09-12T20:04:00.434Z,13.00
2022-09-12T20:06:28.565Z,13.00
2022-09-12T20:08:56.821Z,12.70
2022-09-12T20:11:24.600Z,12.50
2022-09-12T20:13:57.512Z,12.40
2022-09-12T20:16:29.835Z,12.40
2022-09-12T20:19:02.087Z,12.40
2022-09-12T20:21:32.210Z,12.60
2022-09-12T20:24:08.921Z,12.50
2022-09-12T20:26:36.244Z,12.50
2022-09-12T20:29:05.177Z,12.40
2022-09-12T20:31:33.489Z,12.30
2022-09-12T20:34:01.832Z,12.20
2022-09-12T20:36:29.403Z,12.30
2022-09-12T20:39:00.403Z,12.30
2022-09-12T20:41:29.756Z,12.40
2022-09-12T20:43:58.433Z,12.40
2022-09-12T20:46:28.075Z,12.40
2022-09-12T20:48:56.282Z,12.40
2022-09-12T20:51:26.555Z,12.20
2022-09-12T20:53:59.136Z,12.10
2022-09-12T20:56:28.470Z,11.90
2022-09-12T20:58:57.240Z,11.90
2022-09-12T21:01:25.863Z,12.00
2022-09-12T21:03:54.997Z,12.20
2022-09-12T21:06:21.820Z,12.10
2022-09-12T21:08:50.258Z,11.80
2022-09-12T21:11:19.110Z,11.70
2022-09-12T21:13:47.748Z,11.70
2022-09-12T21:16:17.563Z,11.80
2022-09-12T21:18:45.217Z,11.90
2022-09-12T21:21:14.645Z,11.90
2022-09-12T21:23:42.005Z,11.90
2022-09-12T21:26:09.856Z,11.80
2022-09-12T21:28:36.715Z,11.90
2022-09-12T21:31:04.085Z,11.70
2022-09-12T21:33:31.204Z,11.60
2022-09-12T21:36:03.747Z,11.60
2022-09-12T21:38:31.038Z,11.60
2022-09-12T21:41:24.565Z,11.70
2022-09-12T21:43:54.741Z,11.70
2022-09-12T21:46:23.854Z,11.70
2022-09-12T21:48:50.796Z,11.70
2022-09-12T21:51:18.928Z,11.60
2022-09-12T21:53:47.103Z,11.60
2022-09-12T21:56:16.600Z,11.60
2022-09-12T21:58:44.230Z,11.50
2022-09-12T22:01:12.576Z,11.60
2022-09-12T22:03:39.610Z,11.50
2022-09-12T22:06:07.701Z,11.50
2022-09-12T22:08:36.405Z,11.50
2022-09-12T22:11:09.886Z,11.50
2022-09-12T22:13:39.188Z,11.30
2022-09-12T22:16:07.827Z,11.30
2022-09-12T22:18:36.243Z,11.20
2022-09-12T22:21:06.024Z,11.30
2022-09-12T22:23:51.396Z,11.20
2022-09-12T22:26:18.597Z,11.10
2022-09-12T22:28:45.308Z,11.10
2022-09-12T22:31:13.523Z,10.90
2022-09-12T22:33:40.273Z,10.80
2022-09-12T22:36:08.176Z,10.80
2022-09-12T22:38:35.282Z,10.80
2022-09-12T22:41:06.944Z,10.90
2022-09-12T22:43:34.785Z,11.10
2022-09-12T22:46:05.563Z,11.10
2022-09-12T22:48:32.282Z,11.10
2022-09-12T22:50:59.479Z,11.00
2022-09-12T22:53:26.604Z,11.00
2022-09-12T22:55:54.185Z,11.00
2022-09-12T22:58:21.156Z,10.80
2022-09-12T23:00:52.137Z,10.60
2022-09-12T23:03:20.194Z,10.50
2022-09-12T23:05:47.470Z,10.50
2022-09-12T23:08:16.221Z,10.60
2022-09-12T23:10:43.994Z,10.60
2022-09-12T23:13:11.810Z,10.60
2022-09-12T23:15:39.151Z,10.60
2022-09-12T23:18:06.522Z,10.60
2022-09-12T23:20:33.285Z,10.60
2022-09-12T23:23:00.479Z,10.50
2022-09-12T23:25:27.512Z,10.50
2022-09-12T23:27:54.777Z,10.50
2022-09-12T23:30:21.600Z,10.40
2022-09-12T23:32:49.562Z,10.40
2022-09-12T23:35:19.771Z,10.40
2022-09-12T23:37:47.337Z,10.40
2022-09-12T23:40:14.189Z,10.40
2022-09-12T23:42:41.242Z,10.30
2022-09-12T23:45:08.741Z,10.30
2022-09-12T23:47:35.714Z,10.20
2022-09-12T23:50:02.352Z,10.10
2022-09-12T23:52:29.797Z,10.00
2022-09-12T23:54:56.768Z,10.00
2022-09-12T23:57:23.731Z,10.00
2022-09-12T23:59:50.396Z,9.90
